Rangoon, Burma
Current Conditions -  °F | °C
As of 8:00 AM on Sunday 26 Oct 2014 (Local Time) from VYYY Reporting Station
Few Clouds Few Clouds  
Wind Chill: 81°   Ceiling: Unl
Heat Index: 88°   Visibility: 4mi
Dew Point: 79°   Wind: 2mph
Humidity: 94%   Direction: 240°WSW
Pressure: 29.94"   Gusts: NA
Location:  16.79°N, 96.15°E
Report Text: VYYY 260200Z 24002KT 6000 FEW020 27/26 Q1014 NOSIG
Loading
Personal Weather Stations






























Interactive Weather Map
Tropical Storm Tracking
New forecast layout! Learn more

10-Day Weather Forecast

Advertisements
Track Severe Weather on mobile